createdAt,value
2022-08-27T00:02:13.127Z,23.55
2022-08-27T00:04:41.990Z,23.54
2022-08-27T00:07:11.207Z,23.57
2022-08-27T00:09:40.140Z,23.55
2022-08-27T00:12:11.748Z,23.56
2022-08-27T00:14:40.146Z,23.62
2022-08-27T00:17:08.871Z,23.65
2022-08-27T00:19:37.962Z,23.63
2022-08-27T00:22:07.938Z,23.62
2022-08-27T00:24:38.394Z,23.59
2022-08-27T00:27:19.692Z,23.57
2022-08-27T00:29:49.105Z,23.55
2022-08-27T00:32:17.735Z,23.50
2022-08-27T00:34:46.108Z,23.47
2022-08-27T00:37:14.902Z,23.41
2022-08-27T00:39:43.135Z,23.36
2022-08-27T00:42:11.520Z,23.32
2022-08-27T00:44:40.026Z,23.26
2022-08-27T00:47:23.987Z,23.26
2022-08-27T00:50:04.723Z,23.26
2022-08-27T00:52:41.747Z,23.23
2022-08-27T00:55:14.315Z,23.21
2022-08-27T00:57:44.104Z,23.17
2022-08-27T01:00:18.632Z,23.08
2022-08-27T01:02:48.463Z,23.03
2022-08-27T01:05:25.469Z,22.98
2022-08-27T01:08:03.626Z,22.96
2022-08-27T01:10:32.593Z,22.96
2022-08-27T01:13:01.398Z,23.00
2022-08-27T01:15:30.907Z,22.91
2022-08-27T01:17:59.814Z,22.83
2022-08-27T01:20:44.777Z,22.73
2022-08-27T01:23:40.810Z,22.63
2022-08-27T01:26:13.213Z,22.49
2022-08-27T01:28:42.537Z,22.41
2022-08-27T01:31:13.343Z,22.38
2022-08-27T01:33:53.078Z,22.32
2022-08-27T01:36:21.318Z,22.30
2022-08-27T01:38:49.944Z,22.30
2022-08-27T01:41:19.091Z,22.33
2022-08-27T01:43:48.600Z,22.31
2022-08-27T01:46:24.480Z,22.30
2022-08-27T01:48:53.177Z,22.33
2022-08-27T01:51:21.804Z,22.38
2022-08-27T01:53:51.174Z,22.38
2022-08-27T01:56:19.941Z,22.40
2022-08-27T01:58:48.625Z,22.41
2022-08-27T02:01:19.911Z,22.30
2022-08-27T02:03:48.476Z,22.26
2022-08-27T02:06:17.011Z,22.23
2022-08-27T02:08:45.235Z,22.29
2022-08-27T02:11:13.460Z,22.36
2022-08-27T02:13:41.741Z,22.37
2022-08-27T02:16:10.005Z,22.38
2022-08-27T02:18:38.601Z,22.38
2022-08-27T02:21:10.526Z,22.17
2022-08-27T02:23:39.733Z,22.16
2022-08-27T02:26:08.353Z,22.11
2022-08-27T02:28:36.698Z,22.08
2022-08-27T02:31:05.279Z,22.14
2022-08-27T02:33:34.921Z,22.19
2022-08-27T02:36:04.114Z,22.24
2022-08-27T02:38:34.754Z,22.30
2022-08-27T02:41:03.321Z,22.30
2022-08-27T02:43:34.066Z,22.23
2022-08-27T02:46:04.188Z,22.23
2022-08-27T02:48:32.459Z,22.29
2022-08-27T02:51:00.659Z,22.30
2022-08-27T02:53:28.875Z,22.31
2022-08-27T02:55:59.859Z,22.34
2022-08-27T02:58:28.142Z,22.42
2022-08-27T03:00:57.018Z,22.48
2022-08-27T03:03:25.691Z,22.50
2022-08-27T03:05:53.907Z,22.54
2022-08-27T03:08:23.717Z,22.60
2022-08-27T03:10:52.130Z,22.56
2022-08-27T03:13:22.951Z,22.45
2022-08-27T03:15:51.135Z,22.29
2022-08-27T03:18:20.088Z,22.26
2022-08-27T03:20:51.293Z,22.22
2022-08-27T03:23:22.671Z,22.20
2022-08-27T03:25:56.762Z,22.22
2022-08-27T03:28:28.418Z,22.22
2022-08-27T03:31:04.325Z,22.25
2022-08-27T03:33:38.074Z,22.26
2022-08-27T03:36:08.666Z,22.30
2022-08-27T03:38:37.381Z,22.31
2022-08-27T03:41:06.446Z,22.35
2022-08-27T03:43:35.938Z,22.41
2022-08-27T03:46:04.319Z,22.47
2022-08-27T03:48:34.146Z,22.49
2022-08-27T03:51:12.042Z,22.53
2022-08-27T03:53:42.676Z,22.49
2022-08-27T03:56:11.413Z,22.33
2022-08-27T03:58:39.927Z,22.38
2022-08-27T04:01:09.028Z,22.36
2022-08-27T04:03:39.569Z,22.38
2022-08-27T04:06:08.090Z,22.38
2022-08-27T04:08:36.603Z,22.40
2022-08-27T04:11:07.971Z,22.43
2022-08-27T04:13:36.789Z,22.46
2022-08-27T04:16:06.995Z,22.50
2022-08-27T04:18:35.326Z,22.56
2022-08-27T04:21:11.909Z,22.63
2022-08-27T04:23:41.693Z,22.65
2022-08-27T04:26:11.218Z,22.66
2022-08-27T04:28:39.591Z,22.62
2022-08-27T04:31:11.923Z,22.66
2022-08-27T04:33:50.875Z,22.73
2022-08-27T04:36:19.879Z,22.78
2022-08-27T04:38:48.691Z,22.82
2022-08-27T04:41:19.992Z,22.87
2022-08-27T04:43:51.267Z,22.93
2022-08-27T04:46:40.735Z,22.98
2022-08-27T04:49:13.676Z,23.01
2022-08-27T04:51:43.784Z,22.87
2022-08-27T04:54:12.065Z,22.81
2022-08-27T04:56:40.505Z,22.81
2022-08-27T04:59:10.299Z,22.79
2022-08-27T05:01:40.181Z,22.86
2022-08-27T05:04:11.000Z,22.93
2022-08-27T05:06:39.336Z,23.03
2022-08-27T05:09:07.763Z,23.13
2022-08-27T05:11:35.957Z,23.26
2022-08-27T05:14:06.880Z,23.36
2022-08-27T05:16:38.634Z,23.44
2022-08-27T05:19:10.614Z,23.54
2022-08-27T05:21:43.314Z,23.64
2022-08-27T05:24:11.922Z,23.72
2022-08-27T05:26:40.431Z,23.80
2022-08-27T05:29:09.018Z,23.70
2022-08-27T05:31:38.013Z,23.78
2022-08-27T05:34:10.037Z,23.88
2022-08-27T05:36:48.104Z,23.98
2022-08-27T05:39:17.715Z,24.15
2022-08-27T05:41:45.980Z,24.35
2022-08-27T05:47:03.870Z,24.73
2022-08-27T05:49:32.408Z,24.87
2022-08-27T05:52:00.616Z,25.05
2022-08-27T05:54:28.909Z,25.17
2022-08-27T05:56:57.147Z,25.34
2022-08-27T05:59:44.111Z,25.67
2022-08-27T06:02:12.496Z,26.00
2022-08-27T06:04:41.959Z,26.22
2022-08-27T06:07:10.995Z,26.41
2022-08-27T06:09:40.089Z,26.56
2022-08-27T06:12:09.341Z,26.63
2022-08-27T06:14:41.060Z,26.73
2022-08-27T06:17:09.365Z,26.79
2022-08-27T06:19:37.738Z,26.85
2022-08-27T06:22:10.436Z,27.07
2022-08-27T06:24:41.544Z,27.79
2022-08-27T06:27:17.026Z,29.74
2022-08-27T06:29:46.050Z,30.99
2022-08-27T06:32:15.121Z,30.84
2022-08-27T06:34:43.458Z,29.41
2022-08-27T06:37:11.909Z,27.50
2022-08-27T06:39:41.206Z,26.10
2022-08-27T06:42:13.905Z,25.04
2022-08-27T06:44:42.353Z,24.19
2022-08-27T06:47:11.193Z,23.73
2022-08-27T06:49:41.310Z,23.44
2022-08-27T06:52:14.682Z,23.25
2022-08-27T06:54:43.039Z,23.20
2022-08-27T06:57:13.561Z,23.27
2022-08-27T06:59:41.918Z,23.36
2022-08-27T07:02:18.142Z,23.36
2022-08-27T07:04:46.459Z,23.30
2022-08-27T07:07:15.240Z,23.06
2022-08-27T07:10:01.008Z,22.89
2022-08-27T07:12:33.164Z,22.74
2022-08-27T07:15:01.496Z,22.61
2022-08-27T07:17:29.671Z,22.48
2022-08-27T07:19:57.952Z,22.56
2022-08-27T07:22:26.262Z,22.61
2022-08-27T07:24:54.543Z,22.60
2022-08-27T07:27:23.483Z,22.68
2022-08-27T07:29:51.714Z,22.66
2022-08-27T07:32:20.010Z,22.75
2022-08-27T07:34:48.182Z,22.94
2022-08-27T07:37:16.430Z,23.18
2022-08-27T07:39:44.678Z,23.57
2022-08-27T07:42:31.496Z,23.85
2022-08-27T07:44:59.763Z,24.18
2022-08-27T07:47:29.496Z,24.60
2022-08-27T07:49:59.121Z,24.87
2022-08-27T07:52:27.849Z,25.30
2022-08-27T07:54:56.187Z,26.70
2022-08-27T07:57:24.415Z,28.64
2022-08-27T07:59:53.306Z,30.55
2022-08-27T08:02:21.586Z,31.94
2022-08-27T08:04:49.860Z,31.22
2022-08-27T08:07:18.358Z,30.37
2022-08-27T08:09:46.597Z,29.59
2022-08-27T08:12:15.167Z,29.54
2022-08-27T08:14:43.686Z,29.47
2022-08-27T08:17:13.671Z,29.48
2022-08-27T08:19:50.185Z,28.89
2022-08-27T08:22:25.617Z,28.29
2022-08-27T08:24:54.578Z,27.78
2022-08-27T08:27:23.141Z,27.43
2022-08-27T08:29:52.247Z,27.02
2022-08-27T08:32:21.482Z,26.34
2022-08-27T08:34:50.910Z,25.89
2022-08-27T08:37:19.139Z,25.40
2022-08-27T08:39:47.459Z,25.06
2022-08-27T08:42:50.689Z,24.78
2022-08-27T08:45:26.289Z,24.61
2022-08-27T08:48:06.039Z,24.47
2022-08-27T08:51:17.071Z,24.35
2022-08-27T08:53:59.882Z,24.26
2022-08-27T08:56:43.470Z,24.23
2022-08-27T08:59:19.149Z,24.22
2022-08-27T09:01:49.080Z,24.15
2022-08-27T09:04:17.715Z,24.01
2022-08-27T09:07:00.704Z,23.84
2022-08-27T09:09:35.413Z,23.66
2022-08-27T09:12:19.299Z,23.37
2022-08-27T09:14:54.664Z,23.20
2022-08-27T09:17:23.461Z,22.92
2022-08-27T09:19:52.471Z,22.93
2022-08-27T09:22:24.659Z,22.82
2022-08-27T09:25:26.406Z,22.74
2022-08-27T09:27:58.267Z,22.49
2022-08-27T09:30:31.175Z,22.38
2022-08-27T09:33:04.362Z,22.29
2022-08-27T09:35:44.758Z,22.02
2022-08-27T09:38:31.803Z,21.75
2022-08-27T09:41:06.038Z,21.53
2022-08-27T09:43:36.894Z,21.37
2022-08-27T09:46:22.368Z,21.20
2022-08-27T09:48:53.631Z,20.99
2022-08-27T09:51:27.304Z,20.89
2022-08-27T09:54:02.161Z,20.81
2022-08-27T09:56:34.026Z,20.76
2022-08-27T09:59:05.059Z,20.71
2022-08-27T10:01:35.980Z,20.73
2022-08-27T10:04:14.070Z,20.82
2022-08-27T10:06:51.829Z,20.68
2022-08-27T10:09:34.463Z,20.50
2022-08-27T10:12:20.127Z,20.44
2022-08-27T10:14:55.586Z,20.35
2022-08-27T10:17:33.361Z,20.09
2022-08-27T10:20:30.811Z,19.38
2022-08-27T10:23:26.100Z,19.29
2022-08-27T10:26:31.958Z,19.27
2022-08-27T10:29:13.484Z,19.06
2022-08-27T10:32:00.634Z,19.06
2022-08-27T10:35:17.078Z,19.07
2022-08-27T10:37:48.378Z,19.07
2022-08-27T10:40:28.086Z,19.11
2022-08-27T10:43:25.492Z,19.14
2022-08-27T10:46:26.861Z,19.11
2022-08-27T10:49:21.318Z,19.16
2022-08-27T10:52:15.045Z,19.18
2022-08-27T10:54:59.808Z,19.21
2022-08-27T10:57:54.297Z,19.20
2022-08-27T11:00:29.268Z,19.10
2022-08-27T11:03:07.694Z,19.17
2022-08-27T11:05:50.079Z,19.24
2022-08-27T11:08:39.195Z,19.28
2022-08-27T11:11:57.155Z,19.31
2022-08-27T11:14:06.573Z,19.45
2022-08-27T11:16:45.866Z,19.50
2022-08-27T11:19:38.972Z,19.58
2022-08-27T11:22:24.149Z,19.59
2022-08-27T11:24:54.864Z,19.74
2022-08-27T11:27:28.378Z,19.88
2022-08-27T11:30:00.678Z,19.85
2022-08-27T11:33:15.049Z,19.74
2022-08-27T11:36:01.921Z,19.67
2022-08-27T11:38:45.789Z,19.56
2022-08-27T11:41:42.325Z,19.54
2022-08-27T11:44:18.258Z,19.51
2022-08-27T11:46:55.095Z,19.47
2022-08-27T11:49:29.565Z,19.42
2022-08-27T11:52:04.956Z,19.49
2022-08-27T11:54:49.086Z,19.51
2022-08-27T11:57:37.730Z,19.40
2022-08-27T12:00:27.684Z,19.35
2022-08-27T12:03:03.086Z,19.35
2022-08-27T12:05:42.670Z,19.27
2022-08-27T12:08:31.646Z,19.27
2022-08-27T12:11:17.574Z,19.32
2022-08-27T12:14:12.413Z,19.34
2022-08-27T12:16:59.162Z,19.22
2022-08-27T12:19:50.990Z,19.30
2022-08-27T12:22:58.351Z,19.36
2022-08-27T12:25:27.363Z,19.52
2022-08-27T12:27:59.199Z,19.58
2022-08-27T12:30:33.893Z,19.58
2022-08-27T12:33:27.950Z,19.66
2022-08-27T12:35:58.980Z,19.66
2022-08-27T12:38:39.971Z,19.64
2022-08-27T12:41:13.515Z,19.74
2022-08-27T12:43:44.000Z,19.82
2022-08-27T12:46:19.018Z,19.83
2022-08-27T12:48:57.067Z,19.86
2022-08-27T12:51:26.914Z,19.98
2022-08-27T12:54:00.805Z,20.09
2022-08-27T12:56:57.511Z,20.18
2022-08-27T12:59:39.374Z,20.30
2022-08-27T13:02:41.504Z,20.28
2022-08-27T13:05:11.991Z,20.42
2022-08-27T13:07:43.349Z,20.60
2022-08-27T13:10:29.143Z,20.76
2022-08-27T13:13:17.701Z,20.91
2022-08-27T13:15:52.873Z,20.98
2022-08-27T13:18:21.907Z,21.14
2022-08-27T13:21:00.186Z,21.31
2022-08-27T13:23:28.561Z,21.40
2022-08-27T13:26:10.463Z,21.44
2022-08-27T13:28:43.061Z,21.47
2022-08-27T13:31:14.311Z,21.42
2022-08-27T13:33:44.078Z,21.59
2022-08-27T13:36:12.422Z,21.79
2022-08-27T13:38:49.890Z,22.03
2022-08-27T13:41:24.293Z,21.85
2022-08-27T13:43:57.079Z,21.99
2022-08-27T13:46:31.208Z,22.07
2022-08-27T13:49:02.203Z,22.15
2022-08-27T13:51:33.906Z,22.02
2022-08-27T13:54:18.400Z,22.28
2022-08-27T13:56:49.702Z,22.37
2022-08-27T13:59:20.732Z,22.41
2022-08-27T14:02:24.354Z,22.53
2022-08-27T14:05:05.973Z,22.76
2022-08-27T14:07:49.705Z,22.93
2022-08-27T14:10:36.772Z,22.94
2022-08-27T14:13:19.197Z,23.02
2022-08-27T14:15:54.081Z,23.21
2022-08-27T14:18:37.164Z,23.05
2022-08-27T14:21:13.624Z,22.82
2022-08-27T14:23:41.867Z,22.76
2022-08-27T14:26:12.979Z,22.77
2022-08-27T14:28:42.671Z,22.93
2022-08-27T14:31:11.818Z,23.12
2022-08-27T14:33:40.531Z,23.20
2022-08-27T14:36:09.833Z,23.40
2022-08-27T14:38:42.093Z,23.56
2022-08-27T14:41:10.520Z,23.63
2022-08-27T14:43:38.785Z,23.54
2022-08-27T14:46:12.029Z,23.63
2022-08-27T14:48:43.436Z,23.69
2022-08-27T14:51:31.463Z,23.60
2022-08-27T14:53:59.749Z,23.45
2022-08-27T14:56:27.995Z,23.45
2022-08-27T14:58:56.576Z,23.50
2022-08-27T15:01:26.336Z,23.49
2022-08-27T15:03:55.723Z,23.31
2022-08-27T15:06:25.332Z,23.22
2022-08-27T15:08:54.861Z,23.16
2022-08-27T15:11:29.590Z,23.25
2022-08-27T15:13:59.042Z,23.21
2022-08-27T15:16:30.753Z,23.25
2022-08-27T15:19:01.056Z,23.30
2022-08-27T15:21:30.752Z,23.28
2022-08-27T15:24:01.949Z,23.40
2022-08-27T15:26:30.930Z,23.43
2022-08-27T15:29:02.823Z,23.47
2022-08-27T15:31:34.261Z,23.46
2022-08-27T15:34:02.771Z,23.50
2022-08-27T15:36:30.984Z,23.55
2022-08-27T15:38:59.264Z,23.61
2022-08-27T15:41:29.337Z,23.50
2022-08-27T15:43:58.250Z,23.50
2022-08-27T15:46:26.671Z,23.63
2022-08-27T15:48:55.071Z,23.76
2022-08-27T15:51:28.926Z,23.84
2022-08-27T15:53:57.506Z,23.81
2022-08-27T15:56:26.573Z,23.87
2022-08-27T15:58:55.161Z,23.83
2022-08-27T16:01:33.178Z,23.86
2022-08-27T16:04:02.879Z,23.84
2022-08-27T16:06:31.254Z,23.86
2022-08-27T16:08:59.434Z,23.88
2022-08-27T16:11:27.699Z,23.89
2022-08-27T16:13:55.946Z,23.89
2022-08-27T16:16:28.384Z,23.74
2022-08-27T16:18:57.482Z,23.61
2022-08-27T16:21:25.747Z,23.52
2022-08-27T16:23:53.948Z,23.48
2022-08-27T16:26:22.449Z,23.47
2022-08-27T16:28:50.666Z,23.43
2022-08-27T16:31:19.176Z,23.45
2022-08-27T16:33:47.428Z,23.43
2022-08-27T16:36:15.739Z,23.50
2022-08-27T16:38:43.870Z,23.54
2022-08-27T16:41:14.110Z,23.63
2022-08-27T16:43:43.298Z,23.69
2022-08-27T16:46:11.615Z,23.74
2022-08-27T16:49:01.285Z,23.65
2022-08-27T16:51:35.106Z,23.64
2022-08-27T16:54:05.316Z,23.55
2022-08-27T16:56:37.039Z,23.54
2022-08-27T16:59:06.731Z,23.50
2022-08-27T17:01:35.502Z,23.48
2022-08-27T17:04:09.861Z,23.34
2022-08-27T17:06:40.043Z,23.29
2022-08-27T17:09:08.750Z,23.22
2022-08-27T17:11:41.680Z,23.14
2022-08-27T17:14:12.124Z,23.08
2022-08-27T17:16:43.427Z,23.00
2022-08-27T17:19:16.819Z,22.95
2022-08-27T17:21:45.808Z,22.88
2022-08-27T17:24:14.426Z,22.80
2022-08-27T17:26:42.726Z,22.73
2022-08-27T17:29:11.057Z,22.63
2022-08-27T17:31:41.497Z,22.57
2022-08-27T17:34:16.566Z,22.46
2022-08-27T17:36:46.172Z,22.42
2022-08-27T17:39:15.493Z,22.39
2022-08-27T17:41:49.519Z,22.33
2022-08-27T17:44:27.252Z,22.27
2022-08-27T17:46:57.849Z,22.22
2022-08-27T17:49:26.844Z,22.15
2022-08-27T17:52:00.346Z,22.08
2022-08-27T17:54:34.327Z,21.98
2022-08-27T17:57:05.304Z,21.92
2022-08-27T17:59:33.485Z,21.83
2022-08-27T18:02:02.513Z,21.78
2022-08-27T18:04:31.171Z,21.64
2022-08-27T18:06:59.380Z,21.53
2022-08-27T18:09:27.594Z,21.48
2022-08-27T18:11:56.502Z,21.42
2022-08-27T18:14:24.858Z,21.35
2022-08-27T18:16:53.061Z,21.26
2022-08-27T18:19:21.287Z,21.20
2022-08-27T18:21:50.022Z,21.13
2022-08-27T18:24:18.341Z,21.08
2022-08-27T18:26:47.422Z,21.10
2022-08-27T18:29:16.188Z,21.12
2022-08-27T18:31:44.690Z,21.00
2022-08-27T18:34:14.607Z,20.91
2022-08-27T18:36:45.816Z,20.84
2022-08-27T18:39:14.107Z,20.78
2022-08-27T18:41:42.632Z,20.67
2022-08-27T18:44:17.503Z,20.69
2022-08-27T18:46:47.868Z,20.65
2022-08-27T18:49:16.223Z,20.59
2022-08-27T18:51:48.219Z,20.54
2022-08-27T18:54:19.215Z,20.45
2022-08-27T18:56:47.379Z,20.46
2022-08-27T18:59:16.199Z,20.36
2022-08-27T19:01:45.488Z,20.32
2022-08-27T19:04:13.866Z,20.29
2022-08-27T19:06:42.049Z,20.28
2022-08-27T19:09:10.239Z,20.24
2022-08-27T19:11:38.437Z,20.17
2022-08-27T19:14:06.759Z,20.13
2022-08-27T19:16:43.816Z,20.10
2022-08-27T19:19:14.523Z,20.07
2022-08-27T19:21:44.370Z,20.05
2022-08-27T19:24:14.105Z,20.02
2022-08-27T19:26:46.244Z,20.00
2022-08-27T19:29:14.678Z,19.99
2022-08-27T19:32:01.260Z,19.96
2022-08-27T19:34:29.468Z,19.99
2022-08-27T19:37:00.092Z,19.97
2022-08-27T19:39:28.589Z,19.92
2022-08-27T19:41:56.805Z,19.95
2022-08-27T19:44:25.147Z,19.97
2022-08-27T19:46:57.355Z,20.01
2022-08-27T19:49:25.762Z,20.00
2022-08-27T19:51:54.062Z,20.05
2022-08-27T19:54:22.367Z,20.07
2022-08-27T19:56:51.241Z,20.08
2022-08-27T19:59:23.323Z,20.11
2022-08-27T20:01:52.822Z,20.09
2022-08-27T20:04:21.778Z,20.09
2022-08-27T20:06:50.084Z,20.07
2022-08-27T20:09:23.147Z,19.99
2022-08-27T20:11:51.745Z,19.97
2022-08-27T20:14:20.416Z,19.98
2022-08-27T20:16:48.920Z,19.99
2022-08-27T20:19:18.356Z,19.98
2022-08-27T20:21:46.576Z,19.95
2022-08-27T20:24:14.891Z,19.92
2022-08-27T20:26:43.186Z,19.91
2022-08-27T20:29:11.778Z,19.86
2022-08-27T20:31:43.377Z,19.84
2022-08-27T20:34:11.622Z,19.79
2022-08-27T20:36:40.086Z,19.76
2022-08-27T20:39:08.267Z,19.77
2022-08-27T20:41:36.612Z,19.78
2022-08-27T20:44:04.977Z,19.79
2022-08-27T20:46:34.463Z,19.81
2022-08-27T20:49:03.359Z,19.76
2022-08-27T20:51:31.536Z,19.75
2022-08-27T20:54:22.331Z,19.76
2022-08-27T20:56:52.315Z,19.79
2022-08-27T20:59:39.937Z,19.82
2022-08-27T21:02:13.504Z,19.82
2022-08-27T21:04:48.383Z,19.84
2022-08-27T21:07:18.631Z,19.85
2022-08-27T21:09:55.934Z,19.82
2022-08-27T21:12:29.636Z,19.77
2022-08-27T21:14:58.527Z,19.71
2022-08-27T21:17:28.728Z,19.71
2022-08-27T21:19:57.282Z,19.68
2022-08-27T21:22:26.717Z,19.71
2022-08-27T21:24:55.971Z,19.73
2022-08-27T21:27:24.280Z,19.79
2022-08-27T21:29:52.724Z,19.79
2022-08-27T21:32:21.372Z,19.73
2022-08-27T21:34:49.903Z,19.69
2022-08-27T21:37:18.845Z,19.66
2022-08-27T21:39:47.264Z,19.66
2022-08-27T21:42:18.153Z,19.69
2022-08-27T21:44:46.386Z,19.66
2022-08-27T21:47:14.889Z,19.66
2022-08-27T21:49:43.098Z,19.71
2022-08-27T21:52:11.730Z,19.68
2022-08-27T21:54:43.079Z,19.71
2022-08-27T21:57:12.551Z,19.68
2022-08-27T21:59:48.532Z,19.66
2022-08-27T22:02:38.623Z,19.65
2022-08-27T22:05:08.621Z,19.64
2022-08-27T22:07:36.882Z,19.65
2022-08-27T22:10:06.651Z,19.58
2022-08-27T22:12:34.876Z,19.59
2022-08-27T22:15:03.857Z,19.59
2022-08-27T22:17:32.153Z,19.53
2022-08-27T22:20:00.475Z,19.53
2022-08-27T22:22:30.474Z,19.58
2022-08-27T22:24:59.404Z,19.68
2022-08-27T22:27:27.999Z,19.68
2022-08-27T22:29:58.590Z,19.70
2022-08-27T22:32:26.815Z,19.69
2022-08-27T22:34:54.988Z,19.71
2022-08-27T22:37:26.286Z,19.68
2022-08-27T22:39:55.054Z,19.70
2022-08-27T22:42:23.772Z,19.68
2022-08-27T22:44:57.293Z,19.64
2022-08-27T22:47:25.454Z,19.62
2022-08-27T22:49:53.698Z,19.61
2022-08-27T22:52:29.223Z,19.63
2022-08-27T22:54:57.360Z,19.66
2022-08-27T22:57:25.752Z,19.66
2022-08-27T22:59:53.953Z,19.63
2022-08-27T23:02:22.293Z,19.62
2022-08-27T23:04:55.327Z,19.63
2022-08-27T23:07:24.976Z,19.59
2022-08-27T23:09:53.206Z,19.58
2022-08-27T23:12:22.736Z,19.57
2022-08-27T23:14:50.897Z,19.56
2022-08-27T23:17:19.396Z,19.59
2022-08-27T23:19:48.026Z,19.62
2022-08-27T23:22:16.582Z,19.58
2022-08-27T23:25:14.233Z,19.56
2022-08-27T23:27:42.563Z,19.56
2022-08-27T23:30:13.124Z,19.55
2022-08-27T23:32:46.436Z,19.59
2022-08-27T23:35:18.667Z,19.54
2022-08-27T23:37:46.900Z,19.46
2022-08-27T23:40:15.551Z,19.46
2022-08-27T23:42:44.676Z,19.43
2022-08-27T23:45:18.284Z,19.32
2022-08-27T23:47:46.715Z,19.26
2022-08-27T23:50:15.341Z,19.21
2022-08-27T23:52:43.977Z,19.18
2022-08-27T23:55:12.678Z,19.21
2022-08-27T23:57:41.156Z,19.24
